sensor_id;sensor_type;location;lat;lon;timestamp;P1;durP1;ratioP1;P2;durP2;ratioP2
13753;SDS011;6948;51.216;6.778;2023-07-08T00:02:18;4.40;;;3.80;;
13753;SDS011;6948;51.216;6.778;2023-07-08T00:04:44;5.22;;;3.67;;
13753;SDS011;6948;51.216;6.778;2023-07-08T00:07:11;4.10;;;3.60;;
13753;SDS011;6948;51.216;6.778;2023-07-08T00:09:38;5.25;;;3.50;;
13753;SDS011;6948;51.216;6.778;2023-07-08T00:12:08;4.65;;;3.30;;
13753;SDS011;6948;51.216;6.778;2023-07-08T00:14:34;5.00;;;3.25;;
13753;SDS011;6948;51.216;6.778;2023-07-08T00:17:00;4.60;;;3.47;;
13753;SDS011;6948;51.216;6.778;2023-07-08T00:19:26;3.60;;;3.25;;
13753;SDS011;6948;51.216;6.778;2023-07-08T00:21:52;6.22;;;3.50;;
13753;SDS011;6948;51.216;6.778;2023-07-08T00:24:18;3.40;;;3.10;;
13753;SDS011;6948;51.216;6.778;2023-07-08T00:26:44;5.57;;;3.55;;
13753;SDS011;6948;51.216;6.778;2023-07-08T00:29:10;4.93;;;3.22;;
13753;SDS011;6948;51.216;6.778;2023-07-08T00:31:37;4.85;;;3.05;;
13753;SDS011;6948;51.216;6.778;2023-07-08T00:34:03;4.78;;;3.30;;
13753;SDS011;6948;51.216;6.778;2023-07-08T00:36:29;6.32;;;3.30;;
13753;SDS011;6948;51.216;6.778;2023-07-08T00:38:56;4.32;;;3.15;;
13753;SDS011;6948;51.216;6.778;2023-07-08T00:41:38;5.82;;;3.33;;
13753;SDS011;6948;51.216;6.778;2023-07-08T00:44:07;6.22;;;3.28;;
13753;SDS011;6948;51.216;6.778;2023-07-08T00:46:46;5.13;;;3.50;;
13753;SDS011;6948;51.216;6.778;2023-07-08T00:49:17;5.22;;;3.47;;
13753;SDS011;6948;51.216;6.778;2023-07-08T00:51:47;3.97;;;3.33;;
13753;SDS011;6948;51.216;6.778;2023-07-08T00:54:13;4.70;;;3.33;;
13753;SDS011;6948;51.216;6.778;2023-07-08T00:56:56;5.60;;;3.38;;
13753;SDS011;6948;51.216;6.778;2023-07-08T01:02:00;6.15;;;3.17;;
13753;SDS011;6948;51.216;6.778;2023-07-08T01:04:29;4.18;;;3.15;;
13753;SDS011;6948;51.216;6.778;2023-07-08T01:06:57;4.63;;;3.35;;
13753;SDS011;6948;51.216;6.778;2023-07-08T01:09:28;5.32;;;3.40;;
13753;SDS011;6948;51.216;6.778;2023-07-08T01:11:56;5.13;;;3.08;;
13753;SDS011;6948;51.216;6.778;2023-07-08T01:14:24;6.07;;;3.80;;
13753;SDS011;6948;51.216;6.778;2023-07-08T01:16:52;5.07;;;3.70;;
13753;SDS011;6948;51.216;6.778;2023-07-08T01:19:19;4.22;;;3.40;;
13753;SDS011;6948;51.216;6.778;2023-07-08T01:24:31;4.80;;;3.63;;
13753;SDS011;6948;51.216;6.778;2023-07-08T01:26:59;7.03;;;4.00;;
13753;SDS011;6948;51.216;6.778;2023-07-08T01:29:25;6.97;;;5.13;;
13753;SDS011;6948;51.216;6.778;2023-07-08T01:31:54;4.75;;;3.83;;
13753;SDS011;6948;51.216;6.778;2023-07-08T01:34:20;5.95;;;3.60;;
13753;SDS011;6948;51.216;6.778;2023-07-08T01:36:49;5.97;;;3.65;;
13753;SDS011;6948;51.216;6.778;2023-07-08T01:39:17;4.22;;;3.50;;
13753;SDS011;6948;51.216;6.778;2023-07-08T01:41:44;5.75;;;3.38;;
13753;SDS011;6948;51.216;6.778;2023-07-08T01:44:27;5.30;;;3.25;;
13753;SDS011;6948;51.216;6.778;2023-07-08T01:46:55;6.25;;;5.65;;
13753;SDS011;6948;51.216;6.778;2023-07-08T01:49:21;7.07;;;3.72;;
13753;SDS011;6948;51.216;6.778;2023-07-08T01:51:48;5.38;;;3.70;;
13753;SDS011;6948;51.216;6.778;2023-07-08T01:54:15;5.68;;;4.00;;
13753;SDS011;6948;51.216;6.778;2023-07-08T01:56:41;7.35;;;5.35;;
13753;SDS011;6948;51.216;6.778;2023-07-08T01:59:07;6.03;;;4.45;;
13753;SDS011;6948;51.216;6.778;2023-07-08T02:01:33;5.53;;;4.07;;
13753;SDS011;6948;51.216;6.778;2023-07-08T02:03:59;4.40;;;3.75;;
13753;SDS011;6948;51.216;6.778;2023-07-08T02:06:25;5.88;;;3.80;;
13753;SDS011;6948;51.216;6.778;2023-07-08T02:08:51;6.22;;;3.90;;
13753;SDS011;6948;51.216;6.778;2023-07-08T02:11:17;5.50;;;3.95;;
13753;SDS011;6948;51.216;6.778;2023-07-08T02:13:43;4.55;;;3.80;;
13753;SDS011;6948;51.216;6.778;2023-07-08T02:16:09;3.85;;;3.47;;
13753;SDS011;6948;51.216;6.778;2023-07-08T02:18:36;5.63;;;3.60;;
13753;SDS011;6948;51.216;6.778;2023-07-08T02:21:02;4.82;;;3.75;;
13753;SDS011;6948;51.216;6.778;2023-07-08T02:23:28;5.60;;;3.70;;
13753;SDS011;6948;51.216;6.778;2023-07-08T02:25:54;5.43;;;3.85;;
13753;SDS011;6948;51.216;6.778;2023-07-08T02:28:21;7.82;;;3.97;;
13753;SDS011;6948;51.216;6.778;2023-07-08T02:30:47;6.38;;;4.10;;
13753;SDS011;6948;51.216;6.778;2023-07-08T02:33:13;6.53;;;4.18;;
13753;SDS011;6948;51.216;6.778;2023-07-08T02:35:42;6.60;;;3.85;;
13753;SDS011;6948;51.216;6.778;2023-07-08T02:38:09;5.93;;;3.72;;
13753;SDS011;6948;51.216;6.778;2023-07-08T02:40:35;5.72;;;4.10;;
13753;SDS011;6948;51.216;6.778;2023-07-08T02:43:01;5.60;;;3.95;;
13753;SDS011;6948;51.216;6.778;2023-07-08T02:45:27;6.72;;;4.00;;
13753;SDS011;6948;51.216;6.778;2023-07-08T02:47:53;5.22;;;4.13;;
13753;SDS011;6948;51.216;6.778;2023-07-08T02:50:19;4.90;;;4.10;;
13753;SDS011;6948;51.216;6.778;2023-07-08T02:52:45;7.38;;;3.78;;
13753;SDS011;6948;51.216;6.778;2023-07-08T02:55:11;5.32;;;4.00;;
13753;SDS011;6948;51.216;6.778;2023-07-08T02:57:37;6.93;;;4.03;;
13753;SDS011;6948;51.216;6.778;2023-07-08T03:00:03;11.15;;;4.30;;
13753;SDS011;6948;51.216;6.778;2023-07-08T03:02:29;6.20;;;4.40;;
13753;SDS011;6948;51.216;6.778;2023-07-08T03:04:55;7.43;;;4.40;;
13753;SDS011;6948;51.216;6.778;2023-07-08T03:07:24;4.68;;;4.13;;
13753;SDS011;6948;51.216;6.778;2023-07-08T03:09:50;5.82;;;4.20;;
13753;SDS011;6948;51.216;6.778;2023-07-08T03:12:16;6.40;;;4.25;;
13753;SDS011;6948;51.216;6.778;2023-07-08T03:14:42;4.55;;;4.07;;
13753;SDS011;6948;51.216;6.778;2023-07-08T03:17:08;7.43;;;4.40;;
13753;SDS011;6948;51.216;6.778;2023-07-08T03:19:34;6.65;;;4.28;;
13753;SDS011;6948;51.216;6.778;2023-07-08T03:22:00;7.40;;;4.53;;
13753;SDS011;6948;51.216;6.778;2023-07-08T03:24:29;5.43;;;4.10;;
13753;SDS011;6948;51.216;6.778;2023-07-08T03:26:55;6.10;;;4.30;;
13753;SDS011;6948;51.216;6.778;2023-07-08T03:29:24;6.38;;;4.60;;
13753;SDS011;6948;51.216;6.778;2023-07-08T03:31:50;8.50;;;4.50;;
13753;SDS011;6948;51.216;6.778;2023-07-08T03:34:17;6.35;;;4.45;;
13753;SDS011;6948;51.216;6.778;2023-07-08T03:36:44;6.53;;;4.05;;
13753;SDS011;6948;51.216;6.778;2023-07-08T03:39:14;6.80;;;4.40;;
13753;SDS011;6948;51.216;6.778;2023-07-08T03:41:40;5.90;;;4.18;;
13753;SDS011;6948;51.216;6.778;2023-07-08T03:44:06;6.28;;;4.65;;
13753;SDS011;6948;51.216;6.778;2023-07-08T03:46:32;6.57;;;4.53;;
13753;SDS011;6948;51.216;6.778;2023-07-08T03:48:58;7.35;;;4.25;;
13753;SDS011;6948;51.216;6.778;2023-07-08T03:51:26;5.95;;;4.38;;
13753;SDS011;6948;51.216;6.778;2023-07-08T03:53:53;6.40;;;4.40;;
13753;SDS011;6948;51.216;6.778;2023-07-08T03:56:19;5.82;;;4.03;;
13753;SDS011;6948;51.216;6.778;2023-07-08T03:58:45;5.85;;;4.40;;
13753;SDS011;6948;51.216;6.778;2023-07-08T04:01:13;10.45;;;4.82;;
13753;SDS011;6948;51.216;6.778;2023-07-08T04:03:40;9.43;;;4.40;;
13753;SDS011;6948;51.216;6.778;2023-07-08T04:06:06;6.50;;;4.32;;
13753;SDS011;6948;51.216;6.778;2023-07-08T04:08:32;4.88;;;3.80;;
13753;SDS011;6948;51.216;6.778;2023-07-08T04:10:58;6.00;;;4.28;;
13753;SDS011;6948;51.216;6.778;2023-07-08T04:13:24;5.50;;;4.20;;
13753;SDS011;6948;51.216;6.778;2023-07-08T04:15:55;5.50;;;3.97;;
13753;SDS011;6948;51.216;6.778;2023-07-08T04:18:22;5.72;;;4.05;;
13753;SDS011;6948;51.216;6.778;2023-07-08T04:20:47;5.97;;;4.07;;
13753;SDS011;6948;51.216;6.778;2023-07-08T04:23:17;7.00;;;4.63;;
13753;SDS011;6948;51.216;6.778;2023-07-08T04:25:43;6.28;;;4.10;;
13753;SDS011;6948;51.216;6.778;2023-07-08T04:28:09;7.00;;;4.30;;
13753;SDS011;6948;51.216;6.778;2023-07-08T04:30:35;4.90;;;4.40;;
13753;SDS011;6948;51.216;6.778;2023-07-08T04:33:06;6.07;;;4.18;;
13753;SDS011;6948;51.216;6.778;2023-07-08T04:35:33;6.85;;;4.47;;
13753;SDS011;6948;51.216;6.778;2023-07-08T04:38:00;7.97;;;4.55;;
13753;SDS011;6948;51.216;6.778;2023-07-08T04:40:26;6.03;;;4.30;;
13753;SDS011;6948;51.216;6.778;2023-07-08T04:42:52;4.93;;;4.30;;
13753;SDS011;6948;51.216;6.778;2023-07-08T04:45:18;5.22;;;4.07;;
13753;SDS011;6948;51.216;6.778;2023-07-08T04:47:45;5.65;;;4.05;;
13753;SDS011;6948;51.216;6.778;2023-07-08T04:50:17;5.68;;;4.03;;
13753;SDS011;6948;51.216;6.778;2023-07-08T04:52:43;4.88;;;3.72;;
13753;SDS011;6948;51.216;6.778;2023-07-08T04:55:10;6.10;;;4.05;;
13753;SDS011;6948;51.216;6.778;2023-07-08T04:57:36;5.07;;;4.05;;
13753;SDS011;6948;51.216;6.778;2023-07-08T05:00:02;6.70;;;4.30;;
13753;SDS011;6948;51.216;6.778;2023-07-08T05:02:30;8.00;;;4.80;;
13753;SDS011;6948;51.216;6.778;2023-07-08T05:04:56;6.55;;;4.53;;
13753;SDS011;6948;51.216;6.778;2023-07-08T05:07:22;7.03;;;4.45;;
13753;SDS011;6948;51.216;6.778;2023-07-08T05:09:48;6.43;;;3.97;;
13753;SDS011;6948;51.216;6.778;2023-07-08T05:12:14;7.55;;;4.68;;
13753;SDS011;6948;51.216;6.778;2023-07-08T05:14:40;5.32;;;4.28;;
13753;SDS011;6948;51.216;6.778;2023-07-08T05:17:07;7.60;;;4.45;;
13753;SDS011;6948;51.216;6.778;2023-07-08T05:19:33;6.28;;;4.45;;
13753;SDS011;6948;51.216;6.778;2023-07-08T05:21:59;5.05;;;4.18;;
13753;SDS011;6948;51.216;6.778;2023-07-08T05:24:25;6.90;;;4.10;;
13753;SDS011;6948;51.216;6.778;2023-07-08T05:26:51;7.53;;;4.13;;
13753;SDS011;6948;51.216;6.778;2023-07-08T05:29:17;6.40;;;4.47;;
13753;SDS011;6948;51.216;6.778;2023-07-08T05:31:43;5.78;;;4.25;;
13753;SDS011;6948;51.216;6.778;2023-07-08T05:34:09;6.55;;;4.40;;
13753;SDS011;6948;51.216;6.778;2023-07-08T05:36:35;5.97;;;4.18;;
13753;SDS011;6948;51.216;6.778;2023-07-08T05:39:01;6.63;;;4.40;;
13753;SDS011;6948;51.216;6.778;2023-07-08T05:41:27;6.57;;;4.53;;
13753;SDS011;6948;51.216;6.778;2023-07-08T05:43:53;8.93;;;4.75;;
13753;SDS011;6948;51.216;6.778;2023-07-08T05:46:19;11.90;;;5.00;;
13753;SDS011;6948;51.216;6.778;2023-07-08T05:48:45;7.22;;;4.25;;
13753;SDS011;6948;51.216;6.778;2023-07-08T05:51:12;6.35;;;4.15;;
13753;SDS011;6948;51.216;6.778;2023-07-08T05:53:38;5.75;;;4.20;;
13753;SDS011;6948;51.216;6.778;2023-07-08T05:56:04;5.30;;;4.70;;
13753;SDS011;6948;51.216;6.778;2023-07-08T05:58:30;5.57;;;4.50;;
13753;SDS011;6948;51.216;6.778;2023-07-08T06:00:57;5.25;;;3.88;;
13753;SDS011;6948;51.216;6.778;2023-07-08T06:03:23;4.45;;;3.85;;
13753;SDS011;6948;51.216;6.778;2023-07-08T06:05:49;6.03;;;4.50;;
13753;SDS011;6948;51.216;6.778;2023-07-08T06:08:15;6.80;;;4.00;;
13753;SDS011;6948;51.216;6.778;2023-07-08T06:10:42;5.82;;;4.43;;
13753;SDS011;6948;51.216;6.778;2023-07-08T06:13:09;6.00;;;4.07;;
13753;SDS011;6948;51.216;6.778;2023-07-08T06:15:35;7.75;;;4.47;;
13753;SDS011;6948;51.216;6.778;2023-07-08T06:18:01;4.93;;;4.00;;
13753;SDS011;6948;51.216;6.778;2023-07-08T06:20:28;5.13;;;4.18;;
13753;SDS011;6948;51.216;6.778;2023-07-08T06:22:54;4.82;;;4.15;;
13753;SDS011;6948;51.216;6.778;2023-07-08T06:25:20;5.57;;;4.32;;
13753;SDS011;6948;51.216;6.778;2023-07-08T06:27:46;9.07;;;4.32;;
13753;SDS011;6948;51.216;6.778;2023-07-08T06:30:12;5.18;;;4.20;;
13753;SDS011;6948;51.216;6.778;2023-07-08T06:32:38;6.22;;;4.20;;
13753;SDS011;6948;51.216;6.778;2023-07-08T06:35:04;6.85;;;4.20;;
13753;SDS011;6948;51.216;6.778;2023-07-08T06:37:31;5.53;;;4.05;;
13753;SDS011;6948;51.216;6.778;2023-07-08T06:39:57;4.53;;;4.10;;
13753;SDS011;6948;51.216;6.778;2023-07-08T06:42:23;7.35;;;4.70;;
13753;SDS011;6948;51.216;6.778;2023-07-08T06:44:49;7.03;;;4.40;;
13753;SDS011;6948;51.216;6.778;2023-07-08T06:47:17;4.80;;;4.30;;
13753;SDS011;6948;51.216;6.778;2023-07-08T06:49:44;4.80;;;4.20;;
13753;SDS011;6948;51.216;6.778;2023-07-08T06:52:10;7.38;;;4.53;;
13753;SDS011;6948;51.216;6.778;2023-07-08T06:54:37;6.70;;;4.45;;
13753;SDS011;6948;51.216;6.778;2023-07-08T06:57:03;5.88;;;4.20;;
13753;SDS011;6948;51.216;6.778;2023-07-08T06:59:29;5.60;;;4.82;;
13753;SDS011;6948;51.216;6.778;2023-07-08T07:01:55;7.13;;;4.80;;
13753;SDS011;6948;51.216;6.778;2023-07-08T07:04:21;4.70;;;4.30;;
13753;SDS011;6948;51.216;6.778;2023-07-08T07:06:47;7.22;;;4.40;;
13753;SDS011;6948;51.216;6.778;2023-07-08T07:09:13;6.18;;;4.40;;
13753;SDS011;6948;51.216;6.778;2023-07-08T07:11:39;8.40;;;4.60;;
13753;SDS011;6948;51.216;6.778;2023-07-08T07:14:05;6.97;;;4.50;;
13753;SDS011;6948;51.216;6.778;2023-07-08T07:16:31;6.95;;;4.63;;
13753;SDS011;6948;51.216;6.778;2023-07-08T07:18:57;6.88;;;4.35;;
13753;SDS011;6948;51.216;6.778;2023-07-08T07:21:23;5.38;;;4.32;;
13753;SDS011;6948;51.216;6.778;2023-07-08T07:23:49;6.88;;;5.20;;
13753;SDS011;6948;51.216;6.778;2023-07-08T07:26:15;7.25;;;5.07;;
13753;SDS011;6948;51.216;6.778;2023-07-08T07:28:41;6.78;;;4.53;;
13753;SDS011;6948;51.216;6.778;2023-07-08T07:31:07;7.45;;;5.75;;
13753;SDS011;6948;51.216;6.778;2023-07-08T07:33:35;6.00;;;5.10;;
13753;SDS011;6948;51.216;6.778;2023-07-08T07:36:02;5.45;;;4.93;;
13753;SDS011;6948;51.216;6.778;2023-07-08T07:38:28;6.00;;;5.28;;
13753;SDS011;6948;51.216;6.778;2023-07-08T07:40:54;7.25;;;5.13;;
13753;SDS011;6948;51.216;6.778;2023-07-08T07:43:21;6.43;;;5.82;;
13753;SDS011;6948;51.216;6.778;2023-07-08T07:45:50;6.55;;;5.22;;
13753;SDS011;6948;51.216;6.778;2023-07-08T07:48:17;7.32;;;5.25;;
13753;SDS011;6948;51.216;6.778;2023-07-08T07:50:45;7.85;;;5.72;;
13753;SDS011;6948;51.216;6.778;2023-07-08T07:53:12;6.32;;;5.20;;
13753;SDS011;6948;51.216;6.778;2023-07-08T07:55:38;8.38;;;7.13;;
13753;SDS011;6948;51.216;6.778;2023-07-08T07:58:04;9.07;;;6.80;;
13753;SDS011;6948;51.216;6.778;2023-07-08T08:00:30;7.25;;;5.68;;
13753;SDS011;6948;51.216;6.778;2023-07-08T08:02:56;6.75;;;6.05;;
13753;SDS011;6948;51.216;6.778;2023-07-08T08:05:22;6.95;;;5.53;;
13753;SDS011;6948;51.216;6.778;2023-07-08T08:07:48;9.38;;;6.00;;
13753;SDS011;6948;51.216;6.778;2023-07-08T08:10:14;7.53;;;5.68;;
13753;SDS011;6948;51.216;6.778;2023-07-08T08:12:41;7.25;;;5.93;;
13753;SDS011;6948;51.216;6.778;2023-07-08T08:15:07;6.68;;;5.60;;
13753;SDS011;6948;51.216;6.778;2023-07-08T08:17:33;6.13;;;5.53;;
13753;SDS011;6948;51.216;6.778;2023-07-08T08:19:59;9.13;;;5.38;;
13753;SDS011;6948;51.216;6.778;2023-07-08T08:22:25;5.97;;;5.38;;
13753;SDS011;6948;51.216;6.778;2023-07-08T08:24:51;7.65;;;5.82;;
13753;SDS011;6948;51.216;6.778;2023-07-08T08:27:17;6.55;;;5.00;;
13753;SDS011;6948;51.216;6.778;2023-07-08T08:29:43;7.55;;;6.80;;
13753;SDS011;6948;51.216;6.778;2023-07-08T08:32:09;6.53;;;5.32;;
13753;SDS011;6948;51.216;6.778;2023-07-08T08:34:35;7.10;;;5.30;;
13753;SDS011;6948;51.216;6.778;2023-07-08T08:37:02;6.63;;;5.75;;
13753;SDS011;6948;51.216;6.778;2023-07-08T08:39:28;7.47;;;6.15;;
13753;SDS011;6948;51.216;6.778;2023-07-08T08:41:55;6.90;;;5.85;;
13753;SDS011;6948;51.216;6.778;2023-07-08T08:44:25;7.03;;;5.70;;
13753;SDS011;6948;51.216;6.778;2023-07-08T08:46:55;7.97;;;5.97;;
13753;SDS011;6948;51.216;6.778;2023-07-08T08:49:25;7.03;;;5.43;;
13753;SDS011;6948;51.216;6.778;2023-07-08T08:51:52;9.68;;;5.68;;
13753;SDS011;6948;51.216;6.778;2023-07-08T08:54:19;6.50;;;5.45;;
13753;SDS011;6948;51.216;6.778;2023-07-08T08:59:41;6.82;;;5.57;;
13753;SDS011;6948;51.216;6.778;2023-07-08T09:04:55;7.78;;;5.72;;
13753;SDS011;6948;51.216;6.778;2023-07-08T09:07:23;7.53;;;5.63;;
13753;SDS011;6948;51.216;6.778;2023-07-08T09:10:01;7.63;;;5.65;;
13753;SDS011;6948;51.216;6.778;2023-07-08T09:12:28;7.35;;;5.35;;
13753;SDS011;6948;51.216;6.778;2023-07-08T09:14:55;5.10;;;4.63;;
13753;SDS011;6948;51.216;6.778;2023-07-08T09:17:30;5.60;;;5.00;;
13753;SDS011;6948;51.216;6.778;2023-07-08T09:20:01;6.10;;;5.13;;
13753;SDS011;6948;51.216;6.778;2023-07-08T09:22:36;5.80;;;4.75;;
13753;SDS011;6948;51.216;6.778;2023-07-08T09:25:07;8.57;;;4.93;;
13753;SDS011;6948;51.216;6.778;2023-07-08T09:27:36;8.68;;;5.18;;
13753;SDS011;6948;51.216;6.778;2023-07-08T09:30:02;7.47;;;5.15;;
13753;SDS011;6948;51.216;6.778;2023-07-08T09:32:28;8.05;;;6.25;;
13753;SDS011;6948;51.216;6.778;2023-07-08T09:34:55;6.40;;;4.90;;
13753;SDS011;6948;51.216;6.778;2023-07-08T09:37:24;5.90;;;4.40;;
13753;SDS011;6948;51.216;6.778;2023-07-08T09:39:51;5.75;;;4.70;;
13753;SDS011;6948;51.216;6.778;2023-07-08T09:42:17;6.03;;;5.07;;
13753;SDS011;6948;51.216;6.778;2023-07-08T09:44:44;4.93;;;4.50;;
13753;SDS011;6948;51.216;6.778;2023-07-08T09:47:20;5.85;;;5.05;;
13753;SDS011;6948;51.216;6.778;2023-07-08T09:49:47;7.45;;;5.85;;
13753;SDS011;6948;51.216;6.778;2023-07-08T09:52:13;7.70;;;5.57;;
13753;SDS011;6948;51.216;6.778;2023-07-08T09:54:40;5.78;;;4.35;;
13753;SDS011;6948;51.216;6.778;2023-07-08T09:59:47;4.93;;;4.43;;
13753;SDS011;6948;51.216;6.778;2023-07-08T10:05:01;6.72;;;5.10;;
13753;SDS011;6948;51.216;6.778;2023-07-08T10:07:29;7.63;;;5.18;;
13753;SDS011;6948;51.216;6.778;2023-07-08T10:09:57;7.40;;;4.50;;
13753;SDS011;6948;51.216;6.778;2023-07-08T10:12:23;5.38;;;4.15;;
13753;SDS011;6948;51.216;6.778;2023-07-08T10:14:50;5.88;;;4.68;;
13753;SDS011;6948;51.216;6.778;2023-07-08T10:17:19;4.85;;;4.40;;
13753;SDS011;6948;51.216;6.778;2023-07-08T10:19:45;7.30;;;4.93;;
13753;SDS011;6948;51.216;6.778;2023-07-08T10:25:09;8.55;;;5.43;;
13753;SDS011;6948;51.216;6.778;2023-07-08T10:30:24;6.82;;;5.13;;
13753;SDS011;6948;51.216;6.778;2023-07-08T10:32:55;5.88;;;5.15;;
13753;SDS011;6948;51.216;6.778;2023-07-08T10:43:30;6.90;;;4.25;;
13753;SDS011;6948;51.216;6.778;2023-07-08T10:51:34;6.70;;;4.50;;
13753;SDS011;6948;51.216;6.778;2023-07-08T10:54:12;8.15;;;4.97;;
13753;SDS011;6948;51.216;6.778;2023-07-08T11:02:15;8.60;;;4.50;;
13753;SDS011;6948;51.216;6.778;2023-07-08T11:04:49;8.20;;;4.47;;
13753;SDS011;6948;51.216;6.778;2023-07-08T11:10:10;6.72;;;5.00;;
13753;SDS011;6948;51.216;6.778;2023-07-08T11:12:41;5.95;;;5.00;;
13753;SDS011;6948;51.216;6.778;2023-07-08T11:15:17;6.78;;;5.47;;
13753;SDS011;6948;51.216;6.778;2023-07-08T11:25:52;6.47;;;4.70;;
13753;SDS011;6948;51.216;6.778;2023-07-08T11:28:19;6.57;;;4.75;;
13753;SDS011;6948;51.216;6.778;2023-07-08T11:30:47;7.75;;;4.80;;
13753;SDS011;6948;51.216;6.778;2023-07-08T11:33:15;5.47;;;4.93;;
13753;SDS011;6948;51.216;6.778;2023-07-08T11:35:44;6.43;;;4.82;;
13753;SDS011;6948;51.216;6.778;2023-07-08T11:38:13;6.43;;;4.35;;
13753;SDS011;6948;51.216;6.778;2023-07-08T11:40:57;7.50;;;4.30;;
13753;SDS011;6948;51.216;6.778;2023-07-08T11:43:26;6.78;;;4.30;;
13753;SDS011;6948;51.216;6.778;2023-07-08T11:45:54;4.95;;;4.32;;
13753;SDS011;6948;51.216;6.778;2023-07-08T11:48:22;5.13;;;3.92;;
13753;SDS011;6948;51.216;6.778;2023-07-08T11:50:50;7.25;;;4.10;;
13753;SDS011;6948;51.216;6.778;2023-07-08T11:56:18;7.15;;;4.28;;
13753;SDS011;6948;51.216;6.778;2023-07-08T12:01:26;6.63;;;4.22;;
13753;SDS011;6948;51.216;6.778;2023-07-08T12:03:58;8.57;;;4.50;;
13753;SDS011;6948;51.216;6.778;2023-07-08T12:11:50;7.38;;;4.57;;
13753;SDS011;6948;51.216;6.778;2023-07-08T12:14:18;5.45;;;4.47;;
13753;SDS011;6948;51.216;6.778;2023-07-08T12:16:44;6.07;;;4.38;;
13753;SDS011;6948;51.216;6.778;2023-07-08T12:19:11;7.03;;;4.28;;
13753;SDS011;6948;51.216;6.778;2023-07-08T12:21:39;6.10;;;4.30;;
13753;SDS011;6948;51.216;6.778;2023-07-08T12:24:07;8.43;;;5.00;;
13753;SDS011;6948;51.216;6.778;2023-07-08T12:26:33;6.80;;;4.53;;
13753;SDS011;6948;51.216;6.778;2023-07-08T12:28:59;5.57;;;4.82;;
13753;SDS011;6948;51.216;6.778;2023-07-08T12:31:25;8.68;;;4.05;;
13753;SDS011;6948;51.216;6.778;2023-07-08T12:33:51;5.72;;;4.63;;
13753;SDS011;6948;51.216;6.778;2023-07-08T12:36:19;6.25;;;4.35;;
13753;SDS011;6948;51.216;6.778;2023-07-08T12:38:46;6.80;;;4.32;;
13753;SDS011;6948;51.216;6.778;2023-07-08T12:41:17;4.93;;;4.40;;
13753;SDS011;6948;51.216;6.778;2023-07-08T12:43:43;4.70;;;4.05;;
13753;SDS011;6948;51.216;6.778;2023-07-08T12:46:10;6.60;;;4.30;;
13753;SDS011;6948;51.216;6.778;2023-07-08T12:48:37;6.43;;;4.68;;
13753;SDS011;6948;51.216;6.778;2023-07-08T12:51:04;6.25;;;4.30;;
13753;SDS011;6948;51.216;6.778;2023-07-08T12:53:30;5.65;;;4.60;;
13753;SDS011;6948;51.216;6.778;2023-07-08T12:55:59;6.68;;;4.57;;
13753;SDS011;6948;51.216;6.778;2023-07-08T12:58:26;5.93;;;4.93;;
13753;SDS011;6948;51.216;6.778;2023-07-08T13:00:53;6.55;;;4.43;;
13753;SDS011;6948;51.216;6.778;2023-07-08T13:03:21;6.18;;;4.20;;
13753;SDS011;6948;51.216;6.778;2023-07-08T13:05:48;6.43;;;4.40;;
13753;SDS011;6948;51.216;6.778;2023-07-08T13:08:15;5.50;;;4.35;;
13753;SDS011;6948;51.216;6.778;2023-07-08T13:10:43;6.95;;;4.90;;
13753;SDS011;6948;51.216;6.778;2023-07-08T13:13:13;5.95;;;4.18;;
13753;SDS011;6948;51.216;6.778;2023-07-08T13:15:41;6.28;;;4.50;;
13753;SDS011;6948;51.216;6.778;2023-07-08T13:18:12;6.32;;;5.13;;
13753;SDS011;6948;51.216;6.778;2023-07-08T13:20:39;7.05;;;4.97;;
13753;SDS011;6948;51.216;6.778;2023-07-08T13:23:07;6.05;;;4.35;;
13753;SDS011;6948;51.216;6.778;2023-07-08T13:25:34;5.57;;;4.88;;
13753;SDS011;6948;51.216;6.778;2023-07-08T13:28:14;6.72;;;4.35;;
13753;SDS011;6948;51.216;6.778;2023-07-08T13:30:49;6.90;;;4.68;;
13753;SDS011;6948;51.216;6.778;2023-07-08T13:33:16;6.53;;;4.53;;
13753;SDS011;6948;51.216;6.778;2023-07-08T13:35:42;5.47;;;4.38;;
13753;SDS011;6948;51.216;6.778;2023-07-08T13:38:13;8.38;;;4.20;;
13753;SDS011;6948;51.216;6.778;2023-07-08T13:40:42;6.03;;;4.28;;
13753;SDS011;6948;51.216;6.778;2023-07-08T13:43:09;6.82;;;4.55;;
13753;SDS011;6948;51.216;6.778;2023-07-08T13:45:35;5.32;;;4.30;;
13753;SDS011;6948;51.216;6.778;2023-07-08T13:48:08;5.38;;;4.05;;
13753;SDS011;6948;51.216;6.778;2023-07-08T13:50:43;7.32;;;4.82;;
13753;SDS011;6948;51.216;6.778;2023-07-08T13:53:19;7.47;;;4.95;;
13753;SDS011;6948;51.216;6.778;2023-07-08T13:55:46;6.63;;;4.45;;
13753;SDS011;6948;51.216;6.778;2023-07-08T13:58:14;6.32;;;4.68;;
13753;SDS011;6948;51.216;6.778;2023-07-08T14:00:40;7.40;;;4.63;;
13753;SDS011;6948;51.216;6.778;2023-07-08T14:03:09;8.20;;;4.60;;
13753;SDS011;6948;51.216;6.778;2023-07-08T14:05:37;5.75;;;4.60;;
13753;SDS011;6948;51.216;6.778;2023-07-08T14:08:07;5.45;;;4.90;;
13753;SDS011;6948;51.216;6.778;2023-07-08T14:10:35;7.43;;;4.80;;
13753;SDS011;6948;51.216;6.778;2023-07-08T14:13:01;5.57;;;4.75;;
13753;SDS011;6948;51.216;6.778;2023-07-08T14:15:28;6.68;;;4.50;;
13753;SDS011;6948;51.216;6.778;2023-07-08T14:17:54;6.57;;;4.50;;
13753;SDS011;6948;51.216;6.778;2023-07-08T14:20:20;9.95;;;4.90;;
13753;SDS011;6948;51.216;6.778;2023-07-08T14:22:47;5.90;;;4.50;;
13753;SDS011;6948;51.216;6.778;2023-07-08T14:25:14;6.55;;;5.13;;
13753;SDS011;6948;51.216;6.778;2023-07-08T14:27:41;8.25;;;4.80;;
13753;SDS011;6948;51.216;6.778;2023-07-08T14:30:08;6.35;;;4.60;;
13753;SDS011;6948;51.216;6.778;2023-07-08T14:32:35;7.25;;;5.60;;
13753;SDS011;6948;51.216;6.778;2023-07-08T14:35:10;7.20;;;5.53;;
13753;SDS011;6948;51.216;6.778;2023-07-08T14:37:38;7.22;;;5.05;;
13753;SDS011;6948;51.216;6.778;2023-07-08T14:40:16;6.65;;;4.57;;
13753;SDS011;6948;51.216;6.778;2023-07-08T14:42:44;7.93;;;4.65;;
13753;SDS011;6948;51.216;6.778;2023-07-08T14:45:10;5.70;;;4.65;;
13753;SDS011;6948;51.216;6.778;2023-07-08T14:47:36;4.90;;;4.38;;
13753;SDS011;6948;51.216;6.778;2023-07-08T14:50:11;5.45;;;4.72;;
13753;SDS011;6948;51.216;6.778;2023-07-08T14:52:37;6.75;;;5.00;;
13753;SDS011;6948;51.216;6.778;2023-07-08T14:55:04;8.63;;;4.50;;
13753;SDS011;6948;51.216;6.778;2023-07-08T14:57:30;6.80;;;4.55;;
13753;SDS011;6948;51.216;6.778;2023-07-08T14:59:57;5.60;;;4.60;;
13753;SDS011;6948;51.216;6.778;2023-07-08T15:02:23;7.90;;;4.32;;
13753;SDS011;6948;51.216;6.778;2023-07-08T15:04:50;8.60;;;4.68;;
13753;SDS011;6948;51.216;6.778;2023-07-08T15:07:18;5.57;;;4.40;;
13753;SDS011;6948;51.216;6.778;2023-07-08T15:09:44;6.65;;;4.40;;
13753;SDS011;6948;51.216;6.778;2023-07-08T15:12:11;7.28;;;4.35;;
13753;SDS011;6948;51.216;6.778;2023-07-08T15:14:37;6.75;;;4.30;;
13753;SDS011;6948;51.216;6.778;2023-07-08T15:17:13;4.32;;;3.92;;
13753;SDS011;6948;51.216;6.778;2023-07-08T15:19:41;6.57;;;4.55;;
13753;SDS011;6948;51.216;6.778;2023-07-08T15:22:07;7.00;;;4.80;;
13753;SDS011;6948;51.216;6.778;2023-07-08T15:24:33;7.57;;;4.38;;
13753;SDS011;6948;51.216;6.778;2023-07-08T15:27:00;5.90;;;4.82;;
13753;SDS011;6948;51.216;6.778;2023-07-08T15:29:26;6.55;;;4.75;;
13753;SDS011;6948;51.216;6.778;2023-07-08T15:31:52;6.35;;;4.82;;
13753;SDS011;6948;51.216;6.778;2023-07-08T15:34:20;5.28;;;4.57;;
13753;SDS011;6948;51.216;6.778;2023-07-08T15:36:46;7.70;;;4.85;;
13753;SDS011;6948;51.216;6.778;2023-07-08T15:39:12;6.85;;;4.70;;
13753;SDS011;6948;51.216;6.778;2023-07-08T15:41:38;6.05;;;4.50;;
13753;SDS011;6948;51.216;6.778;2023-07-08T15:44:04;7.82;;;4.82;;
13753;SDS011;6948;51.216;6.778;2023-07-08T15:46:32;8.68;;;4.60;;
13753;SDS011;6948;51.216;6.778;2023-07-08T15:48:59;6.45;;;4.68;;
13753;SDS011;6948;51.216;6.778;2023-07-08T15:51:25;7.20;;;4.60;;
13753;SDS011;6948;51.216;6.778;2023-07-08T15:53:51;7.38;;;4.80;;
13753;SDS011;6948;51.216;6.778;2023-07-08T15:56:18;6.53;;;4.93;;
13753;SDS011;6948;51.216;6.778;2023-07-08T15:58:45;6.03;;;4.93;;
13753;SDS011;6948;51.216;6.778;2023-07-08T16:01:16;6.72;;;4.60;;
13753;SDS011;6948;51.216;6.778;2023-07-08T16:03:45;7.55;;;4.85;;
13753;SDS011;6948;51.216;6.778;2023-07-08T16:06:11;7.43;;;4.88;;